首页
METAR-TAF:

METAR-TAF

机场 :

圣地亚哥-德智利, 智利

阿图罗·梅里诺·贝尼特斯准将国际机场

纬度: 33-23S, 经度: 070-47W, 海拔: 475米

当前天气观测

该预报发布于15分钟前的13:00 UTC
风速2节,风向多变
温度 20°C
湿度 56%
气压 1017 hPa
能见度10公里或以上
1500米以下无云,无积雨云

METAR: SCEL 171300Z VRB02KT CAVOK 20/11 Q1017 NOSIG

时间: 10:15 (13:15 UTC)

预报

该预报发布于2小时和45分钟前的10:30 UTC
预报有效从17日的 12点(UTC)到 18日的 12点(UTC)
风速4节,风向南转西南
能見度: 7000
成为
从 17日的 14点(UTC)到 17日的 16点(UTC)
风速8节,风向
成为
从 17日的 16点(UTC)到 17日的 18点(UTC)
风速14节,风向南转西南
成为
从 18日的 03点(UTC)到 18日的 05点(UTC)
风速5节,风向南转南东

TAF: SCEL 171030Z 1712/1812 21004KT 7000 NSC TX30/1719Z TN13/1810Z BECMG 1714/1716 19008KT BECMG 1716/1718 21014KT BECMG 1803/1805 15005KT

超过4000个机场的气象观测和天气预报(METAR&TAF报告)。

可查询的气象台以黄色和红色小点在地图上表示。

将鼠标移到小点上方,可查看气象台名称。

然后点击查看天气观测和预报。

如需切换地图:点击带黑十字的绿色按钮放大地图;点击带横线的绿色按钮缩小地图;或者点击绿色箭头查看邻近地区的地图。


METAR-TAF: